Thursday, April 24, 2014, 9:17 AM EDT

KFDK, Frederick, Frederick Municipal Airport

Location: Frederick, MD, United States Lat: 39.417
Local Time: 9:17 AM EDT (13:17 GMT) Lon: -77.374
Time Zone: US/Eastern Elev: 301 ft

Show me the last for .
Show Decoded

2014-04-24 08:45 METAR KFDK 241245Z 33010KT 10SM SKC 09/M03 A3016 =
2014-04-24 07:50 METAR KFDK 241150Z 31005KT 10SM SKC 07/M02 A3015 =
2014-04-24 06:45 METAR KFDK 241045Z 30004KT 10SM SKC 04/M03 A3012 =
2014-04-24 06:30 METAR KFDK 241030Z AUTO 29004KT 10SM CLR 03/M02 A3012 RMK AO2 LTG DSNT E =
2014-04-24 06:10 METAR KFDK 241010Z AUTO 00000KT 10SM CLR 03/M02 A3011 RMK AO2 LTG DSNT E =
2014-04-24 05:30 METAR KFDK 240930Z AUTO 31008KT 10SM CLR 04/M02 A3008 RMK AO2 LTG DSNT E =
2014-04-24 05:10 METAR KFDK 240910Z AUTO 29007KT 10SM CLR 05/M02 A3008 RMK AO2 LTG DSNT E =
2014-04-24 04:50 METAR KFDK 240850Z AUTO 30007KT 10SM CLR 04/M02 A3007 RMK AO2 LTG DSNT E AND W =
2014-04-24 04:30 METAR KFDK 240830Z AUTO 31008KT 10SM CLR 06/M02 A3006 RMK AO2 LTG DSNT E =
2014-04-24 04:10 METAR KFDK 240810Z AUTO 32008KT 10SM CLR 06/M02 A3006 RMK AO2 LTG DSNT E =
2014-04-24 03:50 METAR KFDK 240750Z AUTO 33006KT 10SM CLR 06/M02 A3005 RMK AO2 LTG DSNT E =
2014-04-24 03:30 METAR KFDK 240730Z AUTO 32007KT 10SM CLR 06/M01 A3005 RMK AO2 =
2014-04-24 03:10 METAR KFDK 240710Z AUTO 32004KT 10SM CLR 06/M01 A3005 RMK AO2 =
2014-04-24 02:50 METAR KFDK 240650Z AUTO 33003KT 10SM CLR 06/M01 A3004 RMK AO2 =
2014-04-24 02:30 METAR KFDK 240630Z AUTO 31006KT 10SM CLR 06/M01 A3004 RMK AO2 LTG DSNT E =
2014-04-24 02:10 METAR KFDK 240610Z AUTO 30005KT 10SM CLR 06/M01 A3004 RMK AO2 =
2014-04-24 01:50 METAR KFDK 240550Z AUTO 31005KT 10SM CLR 06/M01 A3004 RMK AO2 =
2014-04-24 01:30 METAR KFDK 240530Z AUTO 31007KT 10SM CLR 07/00 A3003 RMK AO2 LTG DSNT E =
2014-04-24 01:10 METAR KFDK 240510Z AUTO 30010G15KT 10SM CLR 07/00 A3003 RMK AO2 =
2014-04-24 00:50 METAR KFDK 240450Z AUTO 30011G15KT 10SM CLR 07/00 A3003 RMK AO2 =
2014-04-24 00:30 METAR KFDK 240430Z AUTO 30010G14KT 10SM CLR 08/00 A3002 RMK AO2 =
2014-04-24 00:10 METAR KFDK 240410Z AUTO 32011G17KT 10SM CLR 08/00 A3002 RMK AO2 =
2014-04-23 23:50 METAR KFDK 240350Z AUTO 31008G16KT 10SM CLR 08/00 A3002 RMK AO2 =
2014-04-23 23:30 METAR KFDK 240330Z AUTO 32008G17KT 10SM CLR 08/00 A3002 RMK AO2 LTG DSNT E =
2014-04-23 23:10 METAR KFDK 240310Z AUTO 31010G18KT 10SM CLR 08/00 A3001 RMK AO2 =
2014-04-23 22:50 METAR KFDK 240250Z AUTO 31004KT 10SM CLR 08/00 A3002 RMK AO2 =
2014-04-23 22:30 METAR KFDK 240230Z AUTO 31008KT 10SM CLR 08/00 A3002 RMK AO2 =
2014-04-23 22:10 METAR KFDK 240210Z AUTO 31011KT 10SM CLR 08/00 A3002 RMK AO2 =
2014-04-23 21:50 METAR KFDK 240150Z AUTO 31012G16KT 10SM CLR 08/01 A3001 RMK AO2 LTG DSNT W =
2014-04-23 21:30 METAR KFDK 240130Z AUTO 31008G17KT 10SM CLR 08/01 A3000 RMK AO2 =
2014-04-23 21:10 METAR KFDK 240110Z AUTO 31011KT 10SM CLR 08/01 A3000 RMK AO2 =
2014-04-23 20:50 METAR KFDK 240050Z AUTO 32012G17KT 10SM CLR 09/01 A2999 RMK AO2 =
2014-04-23 19:50 METAR KFDK 232350Z 33012KT 10SM SCT090 11/02 A2996 =
2014-04-23 18:45 METAR KFDK 232245Z 30017G25KT 10SM SCT090 12/03 A2992 =
2014-04-23 17:47 METAR KFDK 232147Z 31020G30KT 10SM SKC 12/03 A2992 =
2014-04-23 16:47 METAR KFDK 232047Z 31017G27KT 10SM SCT090 12/03 A2990 =
2014-04-23 15:55 METAR KFDK 231955Z 33015G30 10SM SKC 12/04 A2988 =
2014-04-23 13:52 METAR KFDK 231752Z 33017G25KT 10SM SCT046 SCT050 13/04 A2987 =
2014-04-23 12:50 METAR KFDK 231650Z 32014G23KT 10SM BKN044 BKN049 13/04 A2986 =
2014-04-23 11:50 METAR KFDK 231550Z 32014G23KT 10SM BKN048 11/04 A2987 =
2014-04-23 10:52 METAR KFDK 231452Z 32011G18KT 10SM BKN043 BKN048 11/04 A2986 =
2014-04-23 09:50 METAR KFDK 231350Z 33010G23 10SM BKN043 11/03 A2985 =

Support USWX by starting your Amazon purchase here.